createdAt,value
2023-02-18T00:01:38.958Z,7.32
2023-02-18T00:06:42.494Z,7.34
2023-02-18T00:11:45.996Z,7.33
2023-02-18T00:16:49.646Z,7.38
2023-02-18T00:21:53.272Z,7.41
2023-02-18T00:26:57.810Z,7.46
2023-02-18T00:32:01.523Z,7.51
2023-02-18T00:37:05.644Z,7.57
2023-02-18T00:42:09.300Z,7.62
2023-02-18T00:47:12.933Z,7.64
2023-02-18T00:52:16.346Z,7.66
2023-02-18T00:57:19.944Z,7.69
2023-02-18T01:02:26.968Z,7.68
2023-02-18T01:07:30.643Z,7.67
2023-02-18T01:12:34.321Z,7.66
2023-02-18T01:17:38.057Z,7.65
2023-02-18T01:22:42.429Z,7.59
2023-02-18T01:27:46.151Z,7.54
2023-02-18T01:54:46.171Z,7.39
2023-02-18T02:00:00.508Z,7.37
2023-02-18T02:05:04.748Z,7.38
2023-02-18T02:10:10.579Z,7.38
2023-02-18T02:16:11.046Z,7.38
2023-02-18T02:21:48.820Z,7.37
2023-02-18T02:27:20.617Z,7.34
2023-02-18T02:32:33.286Z,7.37
2023-02-18T02:37:59.564Z,7.37
2023-02-18T02:43:03.097Z,7.34
2023-02-18T02:49:02.992Z,7.31
2023-02-18T02:54:23.703Z,7.28
2023-02-18T02:59:27.663Z,7.28
2023-02-18T03:04:52.597Z,7.24
2023-02-18T03:10:18.899Z,7.23
2023-02-18T03:16:18.804Z,7.19
2023-02-18T03:21:50.272Z,7.16
2023-02-18T03:27:29.826Z,7.12
2023-02-18T03:32:35.981Z,7.09
2023-02-18T03:37:50.193Z,7.08
2023-02-18T03:42:53.999Z,7.05
2023-02-18T03:47:57.839Z,7.02
2023-02-18T03:53:01.776Z,6.98
2023-02-18T03:58:05.403Z,6.96
2023-02-18T04:03:09.235Z,6.94
2023-02-18T04:08:12.857Z,6.91
2023-02-18T04:13:18.278Z,6.90
2023-02-18T04:18:22.579Z,6.88
2023-02-18T04:23:26.823Z,6.83
2023-02-18T04:28:30.653Z,6.81
2023-02-18T04:33:34.602Z,6.78
2023-02-18T04:39:03.105Z,6.74
2023-02-18T04:44:06.931Z,6.71
2023-02-18T04:49:10.547Z,6.65
2023-02-18T04:54:14.286Z,6.64
2023-02-18T04:59:20.272Z,6.62
2023-02-18T05:04:49.431Z,6.59
2023-02-18T05:09:55.579Z,6.58
2023-02-18T05:14:59.730Z,6.51
2023-02-18T05:20:04.769Z,6.46
2023-02-18T05:26:30.602Z,6.40
2023-02-18T05:32:11.487Z,6.43
2023-02-18T05:37:15.472Z,6.34
2023-02-18T05:42:19.041Z,6.32
2023-02-18T05:48:14.224Z,6.33
2023-02-18T06:03:38.038Z,6.32
2023-02-18T06:08:41.691Z,6.30
2023-02-18T06:13:51.295Z,6.33
2023-02-18T06:40:48.452Z,6.33
2023-02-18T06:46:17.673Z,6.33
2023-02-18T06:51:21.513Z,6.40
2023-02-18T06:56:25.613Z,6.40
2023-02-18T07:01:29.244Z,6.40
2023-02-18T07:06:58.067Z,6.39
2023-02-18T07:12:02.191Z,6.46
2023-02-18T07:17:05.813Z,6.56
2023-02-18T07:22:09.670Z,6.62
2023-02-18T07:27:13.542Z,6.65
2023-02-18T07:33:33.946Z,6.80
2023-02-18T07:38:37.500Z,6.98
2023-02-18T07:50:46.664Z,7.12
2023-02-18T07:55:50.289Z,7.05
2023-02-18T08:00:56.577Z,7.08
2023-02-18T08:06:51.642Z,7.11
2023-02-18T08:11:55.577Z,7.14
2023-02-18T08:16:59.519Z,7.17
2023-02-18T08:22:03.617Z,7.19
2023-02-18T08:35:17.886Z,7.20
2023-02-18T08:40:21.890Z,7.24
2023-02-18T08:45:26.152Z,7.22
2023-02-18T08:58:58.844Z,7.90
2023-02-18T09:04:02.445Z,8.33
2023-02-18T09:09:56.474Z,8.35
2023-02-18T09:15:27.065Z,8.28
2023-02-18T09:20:30.974Z,8.38
2023-02-18T09:25:34.727Z,8.56
2023-02-18T09:30:40.641Z,8.79
2023-02-18T09:36:02.064Z,8.85
2023-02-18T09:41:19.783Z,8.83
2023-02-18T09:46:33.087Z,8.90
2023-02-18T09:51:37.293Z,8.85
2023-02-18T09:56:42.547Z,8.71
2023-02-18T10:01:52.555Z,8.52
2023-02-18T10:06:58.852Z,8.38
2023-02-18T10:12:31.213Z,8.24
2023-02-18T10:25:07.422Z,8.16
2023-02-18T10:41:04.304Z,8.09
2023-02-18T10:46:27.176Z,8.21
2023-02-18T10:51:36.386Z,8.37
2023-02-18T10:56:52.425Z,8.46
2023-02-18T11:02:01.358Z,8.42
2023-02-18T11:07:14.769Z,8.30
2023-02-18T11:42:30.218Z,8.13
2023-02-18T11:47:38.084Z,8.30
2023-02-18T11:52:50.373Z,8.86
2023-02-18T11:58:06.251Z,9.52
2023-02-18T12:03:38.689Z,9.78
2023-02-18T12:25:26.745Z,8.63
2023-02-18T12:30:54.583Z,8.47
2023-02-18T12:36:27.935Z,8.37
2023-02-18T12:42:07.340Z,8.36
2023-02-18T12:47:40.851Z,8.27
2023-02-18T12:53:00.249Z,8.23
2023-02-18T12:58:33.082Z,8.12
2023-02-18T13:03:59.042Z,8.07
2023-02-18T13:10:21.571Z,8.12
2023-02-18T13:16:23.831Z,8.17
2023-02-18T13:21:30.735Z,8.14
2023-02-18T13:26:38.430Z,8.15
2023-02-18T13:32:41.185Z,8.16
2023-02-18T13:38:00.650Z,8.16
2023-02-18T13:50:37.781Z,8.16
2023-02-18T14:18:14.145Z,7.95
2023-02-18T14:23:20.718Z,7.97
2023-02-18T14:36:15.122Z,7.88
2023-02-18T14:42:39.799Z,7.85
2023-02-18T14:48:14.146Z,7.82
2023-02-18T14:53:27.922Z,7.81
2023-02-18T14:58:39.464Z,7.80
2023-02-18T15:03:46.810Z,7.71
2023-02-18T15:08:55.627Z,7.72
2023-02-18T15:14:40.280Z,7.72
2023-02-18T15:19:56.257Z,7.72
2023-02-18T15:26:29.279Z,7.73
2023-02-18T15:31:39.496Z,7.70
2023-02-18T15:36:52.141Z,7.67
2023-02-18T15:50:16.949Z,7.58
2023-02-18T16:03:13.563Z,7.44
2023-02-18T16:08:28.354Z,7.37
2023-02-18T16:18:35.698Z,7.31
2023-02-18T16:23:56.817Z,7.25
2023-02-18T16:43:17.755Z,7.04
2023-02-18T16:49:13.800Z,7.04
2023-02-18T16:54:17.971Z,6.98
2023-02-18T16:59:22.411Z,6.99
2023-02-18T17:04:26.964Z,7.00
2023-02-18T17:09:32.244Z,6.91
2023-02-18T17:14:36.279Z,6.88
2023-02-18T17:19:46.348Z,6.87
2023-02-18T17:24:50.416Z,6.83
2023-02-18T17:29:54.125Z,6.84
2023-02-18T17:34:59.678Z,6.84
2023-02-18T17:40:13.532Z,6.80
2023-02-18T17:45:35.071Z,6.72
2023-02-18T17:50:38.865Z,6.70
2023-02-18T17:55:45.939Z,6.64
2023-02-18T18:00:57.783Z,6.59
2023-02-18T18:06:03.121Z,6.56
2023-02-18T18:11:11.294Z,6.49
2023-02-18T18:16:18.688Z,6.38
2023-02-18T18:21:35.897Z,6.35
2023-02-18T18:26:39.817Z,6.28
2023-02-18T18:31:45.901Z,6.13
2023-02-18T18:36:51.371Z,6.00
2023-02-18T18:41:56.368Z,5.93
2023-02-18T18:47:00.226Z,5.89
2023-02-18T18:52:17.501Z,5.83
2023-02-18T18:57:30.970Z,5.82
2023-02-18T19:02:44.504Z,5.82
2023-02-18T19:07:53.857Z,5.80
2023-02-18T19:13:39.680Z,5.70
2023-02-18T19:18:44.968Z,5.65
2023-02-18T19:30:58.899Z,5.55
2023-02-18T19:36:11.075Z,5.54
2023-02-18T19:41:19.789Z,5.52
2023-02-18T19:46:24.716Z,5.49
2023-02-18T19:51:28.781Z,5.48
2023-02-18T19:56:32.616Z,5.47
2023-02-18T20:01:36.632Z,5.44
2023-02-18T20:07:06.122Z,5.38
2023-02-18T20:12:13.511Z,5.28
2023-02-18T20:17:17.714Z,5.19
2023-02-18T20:22:21.507Z,5.15
2023-02-18T20:27:25.396Z,5.12
2023-02-18T20:32:29.276Z,5.12
2023-02-18T20:37:34.248Z,5.08
2023-02-18T20:42:39.399Z,4.99
2023-02-18T20:47:43.494Z,4.96
2023-02-18T20:52:47.264Z,5.02
2023-02-18T20:57:51.729Z,5.03
2023-02-18T21:02:55.548Z,5.06
2023-02-18T21:07:59.341Z,5.14
2023-02-18T21:13:03.119Z,5.15
2023-02-18T21:18:06.852Z,5.17
2023-02-18T21:23:12.348Z,5.12
2023-02-18T21:28:42.125Z,5.09
2023-02-18T21:34:13.464Z,4.96
2023-02-18T21:39:17.186Z,4.83
2023-02-18T21:44:24.996Z,4.78
2023-02-18T21:49:34.140Z,4.75
2023-02-18T22:00:36.298Z,4.84
2023-02-18T22:05:42.700Z,4.78
2023-02-18T22:10:46.819Z,4.73
2023-02-18T22:15:58.018Z,4.73
2023-02-18T22:21:10.005Z,4.65
2023-02-18T22:26:14.472Z,4.55
2023-02-18T22:31:18.634Z,4.44
2023-02-18T22:36:25.058Z,4.28
2023-02-18T22:41:31.768Z,4.27
2023-02-18T22:47:44.065Z,4.18
2023-02-18T22:53:03.132Z,4.07
2023-02-18T22:58:06.906Z,4.04
2023-02-18T23:03:10.683Z,4.00
2023-02-18T23:08:14.507Z,3.95
2023-02-18T23:13:18.280Z,3.97
2023-02-18T23:18:22.104Z,3.89
2023-02-18T23:23:25.830Z,3.88
2023-02-18T23:28:29.556Z,3.89
2023-02-18T23:33:33.383Z,3.87
2023-02-18T23:38:37.338Z,3.88
2023-02-18T23:50:47.806Z,3.83
2023-02-18T23:56:06.933Z,3.78
